sensor_id;sensor_type;location;lat;lon;timestamp;temperature;humidity
15844;DHT22;50807;52.436;13.346;2023-04-03T00:00:28;5.90;75.90
15844;DHT22;50807;52.436;13.346;2023-04-03T00:01:00;5.90;76.00
15844;DHT22;50807;52.436;13.346;2023-04-03T00:01:32;5.90;76.00
15844;DHT22;50807;52.436;13.346;2023-04-03T00:02:03;5.90;76.00
15844;DHT22;50807;52.436;13.346;2023-04-03T00:02:34;5.90;76.00
15844;DHT22;50807;52.436;13.346;2023-04-03T00:03:06;5.90;76.00
15844;DHT22;50807;52.436;13.346;2023-04-03T00:03:38;5.90;76.00
15844;DHT22;50807;52.436;13.346;2023-04-03T00:04:08;5.90;76.00
15844;DHT22;50807;52.436;13.346;2023-04-03T00:04:39;5.90;76.00
15844;DHT22;50807;52.436;13.346;2023-04-03T00:05:11;5.90;76.10
15844;DHT22;50807;52.436;13.346;2023-04-03T00:05:42;5.90;76.10
15844;DHT22;50807;52.436;13.346;2023-04-03T00:06:12;5.90;76.10
15844;DHT22;50807;52.436;13.346;2023-04-03T00:06:44;5.90;76.10
15844;DHT22;50807;52.436;13.346;2023-04-03T00:07:15;5.90;76.90
15844;DHT22;50807;52.436;13.346;2023-04-03T00:07:46;5.90;76.00
15844;DHT22;50807;52.436;13.346;2023-04-03T00:08:17;5.90;76.20
15844;DHT22;50807;52.436;13.346;2023-04-03T00:08:49;5.90;76.20
15844;DHT22;50807;52.436;13.346;2023-04-03T00:09:20;5.90;76.30
15844;DHT22;50807;52.436;13.346;2023-04-03T00:09:51;5.90;76.20
15844;DHT22;50807;52.436;13.346;2023-04-03T00:10:22;5.90;76.30
15844;DHT22;50807;52.436;13.346;2023-04-03T00:10:53;5.90;76.30
15844;DHT22;50807;52.436;13.346;2023-04-03T00:11:25;5.90;76.30
15844;DHT22;50807;52.436;13.346;2023-04-03T00:11:55;5.90;76.30
15844;DHT22;50807;52.436;13.346;2023-04-03T00:12:27;5.90;76.40
15844;DHT22;50807;52.436;13.346;2023-04-03T00:12:58;5.90;77.10
15844;DHT22;50807;52.436;13.346;2023-04-03T00:13:29;5.90;76.40
15844;DHT22;50807;52.436;13.346;2023-04-03T00:14:01;5.90;76.40
15844;DHT22;50807;52.436;13.346;2023-04-03T00:14:32;5.90;76.40
15844;DHT22;50807;52.436;13.346;2023-04-03T00:15:03;5.90;76.40
15844;DHT22;50807;52.436;13.346;2023-04-03T00:15:36;5.90;76.50
15844;DHT22;50807;52.436;13.346;2023-04-03T00:16:09;5.90;76.50
15844;DHT22;50807;52.436;13.346;2023-04-03T00:16:40;5.90;76.50
15844;DHT22;50807;52.436;13.346;2023-04-03T00:17:12;5.90;76.50
15844;DHT22;50807;52.436;13.346;2023-04-03T00:17:43;5.90;76.50
15844;DHT22;50807;52.436;13.346;2023-04-03T00:18:15;5.90;76.50
15844;DHT22;50807;52.436;13.346;2023-04-03T00:18:47;5.90;76.50
15844;DHT22;50807;52.436;13.346;2023-04-03T00:19:18;5.80;76.50
15844;DHT22;50807;52.436;13.346;2023-04-03T00:19:50;5.80;76.50
15844;DHT22;50807;52.436;13.346;2023-04-03T00:20:22;5.80;76.40
15844;DHT22;50807;52.436;13.346;2023-04-03T00:20:53;5.80;76.50
15844;DHT22;50807;52.436;13.346;2023-04-03T00:21:24;5.80;76.50
15844;DHT22;50807;52.436;13.346;2023-04-03T00:21:56;5.80;76.60
15844;DHT22;50807;52.436;13.346;2023-04-03T00:22:27;5.80;76.50
15844;DHT22;50807;52.436;13.346;2023-04-03T00:22:59;5.80;76.60
15844;DHT22;50807;52.436;13.346;2023-04-03T00:23:31;5.80;76.60
15844;DHT22;50807;52.436;13.346;2023-04-03T00:24:03;5.80;76.70
15844;DHT22;50807;52.436;13.346;2023-04-03T00:24:34;5.80;76.70
15844;DHT22;50807;52.436;13.346;2023-04-03T00:25:07;5.80;76.60
15844;DHT22;50807;52.436;13.346;2023-04-03T00:25:38;5.80;76.70
15844;DHT22;50807;52.436;13.346;2023-04-03T00:26:10;5.80;76.80
15844;DHT22;50807;52.436;13.346;2023-04-03T00:26:42;5.80;76.70
15844;DHT22;50807;52.436;13.346;2023-04-03T00:27:14;5.80;76.70
15844;DHT22;50807;52.436;13.346;2023-04-03T00:27:46;5.80;76.80
15844;DHT22;50807;52.436;13.346;2023-04-03T00:28:17;5.80;76.80
15844;DHT22;50807;52.436;13.346;2023-04-03T00:28:48;5.80;76.80
15844;DHT22;50807;52.436;13.346;2023-04-03T00:29:20;5.80;76.80
15844;DHT22;50807;52.436;13.346;2023-04-03T00:29:51;5.80;76.80
15844;DHT22;50807;52.436;13.346;2023-04-03T00:30:22;5.80;76.80
15844;DHT22;50807;52.436;13.346;2023-04-03T00:30:54;5.80;76.90
15844;DHT22;50807;52.436;13.346;2023-04-03T00:31:25;5.80;76.90
15844;DHT22;50807;52.436;13.346;2023-04-03T00:31:56;5.80;76.90
15844;DHT22;50807;52.436;13.346;2023-04-03T00:32:27;5.80;76.90
15844;DHT22;50807;52.436;13.346;2023-04-03T00:33:00;5.80;76.90
15844;DHT22;50807;52.436;13.346;2023-04-03T00:33:32;5.80;76.90
15844;DHT22;50807;52.436;13.346;2023-04-03T00:34:03;5.80;76.90
15844;DHT22;50807;52.436;13.346;2023-04-03T00:34:34;5.80;76.90
15844;DHT22;50807;52.436;13.346;2023-04-03T00:35:06;5.80;76.80
15844;DHT22;50807;52.436;13.346;2023-04-03T00:35:38;5.80;77.60
15844;DHT22;50807;52.436;13.346;2023-04-03T00:36:10;5.80;76.90
15844;DHT22;50807;52.436;13.346;2023-04-03T00:36:43;5.80;76.90
15844;DHT22;50807;52.436;13.346;2023-04-03T00:37:14;5.70;76.80
15844;DHT22;50807;52.436;13.346;2023-04-03T00:37:45;5.80;76.90
15844;DHT22;50807;52.436;13.346;2023-04-03T00:38:17;5.70;76.90
15844;DHT22;50807;52.436;13.346;2023-04-03T00:38:48;5.70;77.60
15844;DHT22;50807;52.436;13.346;2023-04-03T00:39:19;5.70;76.80
15844;DHT22;50807;52.436;13.346;2023-04-03T00:39:51;5.70;76.90
15844;DHT22;50807;52.436;13.346;2023-04-03T00:40:23;5.70;76.90
15844;DHT22;50807;52.436;13.346;2023-04-03T00:40:57;5.70;76.90
15844;DHT22;50807;52.436;13.346;2023-04-03T00:41:28;5.70;76.90
15844;DHT22;50807;52.436;13.346;2023-04-03T00:41:59;5.70;76.90
15844;DHT22;50807;52.436;13.346;2023-04-03T00:42:31;5.70;76.90
15844;DHT22;50807;52.436;13.346;2023-04-03T00:43:05;5.70;76.80
15844;DHT22;50807;52.436;13.346;2023-04-03T00:43:42;5.70;77.00
15844;DHT22;50807;52.436;13.346;2023-04-03T00:44:21;5.70;76.90
15844;DHT22;50807;52.436;13.346;2023-04-03T00:45:23;5.70;77.00
15844;DHT22;50807;52.436;13.346;2023-04-03T00:46:02;5.70;76.90
15844;DHT22;50807;52.436;13.346;2023-04-03T00:46:34;5.80;76.90
15844;DHT22;50807;52.436;13.346;2023-04-03T00:47:06;5.70;76.70
15844;DHT22;50807;52.436;13.346;2023-04-03T00:47:40;5.70;76.80
15844;DHT22;50807;52.436;13.346;2023-04-03T00:48:14;5.70;76.70
15844;DHT22;50807;52.436;13.346;2023-04-03T00:48:51;5.70;76.70
15844;DHT22;50807;52.436;13.346;2023-04-03T00:49:21;5.70;76.70
15844;DHT22;50807;52.436;13.346;2023-04-03T00:49:53;5.70;76.70
15844;DHT22;50807;52.436;13.346;2023-04-03T00:50:24;5.70;76.70
15844;DHT22;50807;52.436;13.346;2023-04-03T00:50:57;5.70;76.70
15844;DHT22;50807;52.436;13.346;2023-04-03T00:51:28;5.70;76.70
15844;DHT22;50807;52.436;13.346;2023-04-03T00:52:00;5.70;76.80
15844;DHT22;50807;52.436;13.346;2023-04-03T00:52:31;5.70;76.80
15844;DHT22;50807;52.436;13.346;2023-04-03T00:53:04;5.70;77.50
15844;DHT22;50807;52.436;13.346;2023-04-03T00:53:41;5.70;76.90
15844;DHT22;50807;52.436;13.346;2023-04-03T00:54:21;5.70;76.90
15844;DHT22;50807;52.436;13.346;2023-04-03T00:54:56;5.70;76.90
15844;DHT22;50807;52.436;13.346;2023-04-03T00:55:31;5.70;76.90
15844;DHT22;50807;52.436;13.346;2023-04-03T00:56:05;5.70;76.90
15844;DHT22;50807;52.436;13.346;2023-04-03T00:56:39;5.70;76.90
15844;DHT22;50807;52.436;13.346;2023-04-03T00:57:11;5.70;76.90
15844;DHT22;50807;52.436;13.346;2023-04-03T00:57:43;5.70;76.90
15844;DHT22;50807;52.436;13.346;2023-04-03T00:58:16;5.70;76.90
15844;DHT22;50807;52.436;13.346;2023-04-03T00:58:52;5.70;76.90
15844;DHT22;50807;52.436;13.346;2023-04-03T00:59:31;5.70;76.90
15844;DHT22;50807;52.436;13.346;2023-04-03T01:00:08;5.70;76.90
15844;DHT22;50807;52.436;13.346;2023-04-03T01:00:47;5.70;77.00
15844;DHT22;50807;52.436;13.346;2023-04-03T01:01:28;5.70;77.00
15844;DHT22;50807;52.436;13.346;2023-04-03T01:02:00;5.70;76.90
15844;DHT22;50807;52.436;13.346;2023-04-03T01:02:31;5.70;76.80
15844;DHT22;50807;52.436;13.346;2023-04-03T01:03:03;5.70;76.90
15844;DHT22;50807;52.436;13.346;2023-04-03T01:03:34;5.70;76.90
15844;DHT22;50807;52.436;13.346;2023-04-03T01:04:27;5.70;76.90
15844;DHT22;50807;52.436;13.346;2023-04-03T01:05:00;5.60;76.90
15844;DHT22;50807;52.436;13.346;2023-04-03T01:05:31;5.70;76.90
15844;DHT22;50807;52.436;13.346;2023-04-03T01:06:02;5.70;76.90
15844;DHT22;50807;52.436;13.346;2023-04-03T01:06:36;5.60;76.80
15844;DHT22;50807;52.436;13.346;2023-04-03T01:07:11;5.60;76.90
15844;DHT22;50807;52.436;13.346;2023-04-03T01:07:46;5.60;76.90
15844;DHT22;50807;52.436;13.346;2023-04-03T01:08:18;5.60;76.90
15844;DHT22;50807;52.436;13.346;2023-04-03T01:08:50;5.60;76.90
15844;DHT22;50807;52.436;13.346;2023-04-03T01:09:21;5.60;77.00
15844;DHT22;50807;52.436;13.346;2023-04-03T01:09:56;5.60;77.00
15844;DHT22;50807;52.436;13.346;2023-04-03T01:10:30;5.60;77.00
15844;DHT22;50807;52.436;13.346;2023-04-03T01:11:01;5.60;77.00
15844;DHT22;50807;52.436;13.346;2023-04-03T01:11:33;5.60;77.00
15844;DHT22;50807;52.436;13.346;2023-04-03T01:12:13;5.60;77.00
15844;DHT22;50807;52.436;13.346;2023-04-03T01:12:48;5.60;77.20
15844;DHT22;50807;52.436;13.346;2023-04-03T01:13:24;5.60;77.20
15844;DHT22;50807;52.436;13.346;2023-04-03T01:13:57;5.60;77.20
15844;DHT22;50807;52.436;13.346;2023-04-03T01:14:28;5.60;77.10
15844;DHT22;50807;52.436;13.346;2023-04-03T01:15:02;5.60;77.10
15844;DHT22;50807;52.436;13.346;2023-04-03T01:15:34;5.60;77.20
15844;DHT22;50807;52.436;13.346;2023-04-03T01:16:07;5.60;77.20
15844;DHT22;50807;52.436;13.346;2023-04-03T01:16:38;5.60;77.20
15844;DHT22;50807;52.436;13.346;2023-04-03T01:17:26;5.60;77.20
15844;DHT22;50807;52.436;13.346;2023-04-03T01:17:59;5.60;77.40
15844;DHT22;50807;52.436;13.346;2023-04-03T01:18:33;5.60;77.30
15844;DHT22;50807;52.436;13.346;2023-04-03T01:19:09;5.60;77.30
15844;DHT22;50807;52.436;13.346;2023-04-03T01:19:57;5.60;77.30
15844;DHT22;50807;52.436;13.346;2023-04-03T01:21:23;5.60;77.40
15844;DHT22;50807;52.436;13.346;2023-04-03T01:22:19;5.60;77.30
15844;DHT22;50807;52.436;13.346;2023-04-03T01:23:01;5.60;77.10
15844;DHT22;50807;52.436;13.346;2023-04-03T01:24:52;5.60;77.00
15844;DHT22;50807;52.436;13.346;2023-04-03T01:25:24;5.60;76.80
15844;DHT22;50807;52.436;13.346;2023-04-03T01:25:56;5.60;76.70
15844;DHT22;50807;52.436;13.346;2023-04-03T01:26:28;5.60;76.80
15844;DHT22;50807;52.436;13.346;2023-04-03T01:27:01;5.60;76.80
15844;DHT22;50807;52.436;13.346;2023-04-03T01:27:34;5.60;76.80
15844;DHT22;50807;52.436;13.346;2023-04-03T01:28:09;5.60;76.80
15844;DHT22;50807;52.436;13.346;2023-04-03T01:28:41;5.50;77.00
15844;DHT22;50807;52.436;13.346;2023-04-03T01:29:12;5.50;76.90
15844;DHT22;50807;52.436;13.346;2023-04-03T01:29:43;5.50;77.00
15844;DHT22;50807;52.436;13.346;2023-04-03T01:30:17;5.50;77.10
15844;DHT22;50807;52.436;13.346;2023-04-03T01:30:56;5.50;77.20
15844;DHT22;50807;52.436;13.346;2023-04-03T01:31:46;5.50;77.30
15844;DHT22;50807;52.436;13.346;2023-04-03T01:32:18;5.50;77.40
15844;DHT22;50807;52.436;13.346;2023-04-03T01:32:50;5.50;77.30
15844;DHT22;50807;52.436;13.346;2023-04-03T01:33:21;5.50;77.30
15844;DHT22;50807;52.436;13.346;2023-04-03T01:33:51;5.50;77.40
15844;DHT22;50807;52.436;13.346;2023-04-03T01:34:24;5.40;77.40
15844;DHT22;50807;52.436;13.346;2023-04-03T01:34:55;5.40;77.50
15844;DHT22;50807;52.436;13.346;2023-04-03T01:35:26;5.40;77.50
15844;DHT22;50807;52.436;13.346;2023-04-03T01:35:58;5.40;77.50
15844;DHT22;50807;52.436;13.346;2023-04-03T01:36:30;5.40;77.50
15844;DHT22;50807;52.436;13.346;2023-04-03T01:37:02;5.40;77.70
15844;DHT22;50807;52.436;13.346;2023-04-03T01:37:33;5.40;77.70
15844;DHT22;50807;52.436;13.346;2023-04-03T01:38:05;5.40;77.70
15844;DHT22;50807;52.436;13.346;2023-04-03T01:38:36;5.40;77.80
15844;DHT22;50807;52.436;13.346;2023-04-03T01:39:07;5.40;77.80
15844;DHT22;50807;52.436;13.346;2023-04-03T01:39:38;5.40;77.90
15844;DHT22;50807;52.436;13.346;2023-04-03T01:40:10;5.40;78.00
15844;DHT22;50807;52.436;13.346;2023-04-03T01:40:41;5.40;78.10
15844;DHT22;50807;52.436;13.346;2023-04-03T01:41:13;5.30;78.00
15844;DHT22;50807;52.436;13.346;2023-04-03T01:41:44;5.40;78.10
15844;DHT22;50807;52.436;13.346;2023-04-03T01:42:15;5.40;78.10
15844;DHT22;50807;52.436;13.346;2023-04-03T01:42:47;5.40;78.10
15844;DHT22;50807;52.436;13.346;2023-04-03T01:43:18;5.30;78.10
15844;DHT22;50807;52.436;13.346;2023-04-03T01:43:49;5.30;78.10
15844;DHT22;50807;52.436;13.346;2023-04-03T01:44:20;5.30;78.20
15844;DHT22;50807;52.436;13.346;2023-04-03T01:44:52;5.30;78.20
15844;DHT22;50807;52.436;13.346;2023-04-03T01:45:22;5.30;78.20
15844;DHT22;50807;52.436;13.346;2023-04-03T01:45:53;5.30;78.20
15844;DHT22;50807;52.436;13.346;2023-04-03T01:46:25;5.30;78.30
15844;DHT22;50807;52.436;13.346;2023-04-03T01:46:57;5.30;78.30
15844;DHT22;50807;52.436;13.346;2023-04-03T01:47:28;5.30;78.40
15844;DHT22;50807;52.436;13.346;2023-04-03T01:48:00;5.30;78.40
15844;DHT22;50807;52.436;13.346;2023-04-03T01:48:31;5.30;78.40
15844;DHT22;50807;52.436;13.346;2023-04-03T01:49:02;5.30;78.40
15844;DHT22;50807;52.436;13.346;2023-04-03T01:49:32;5.30;78.40
15844;DHT22;50807;52.436;13.346;2023-04-03T01:50:05;5.30;78.40
15844;DHT22;50807;52.436;13.346;2023-04-03T01:50:36;5.30;78.50
15844;DHT22;50807;52.436;13.346;2023-04-03T01:51:07;5.30;78.50
15844;DHT22;50807;52.436;13.346;2023-04-03T01:51:38;5.30;78.50
15844;DHT22;50807;52.436;13.346;2023-04-03T01:52:09;5.30;78.50
15844;DHT22;50807;52.436;13.346;2023-04-03T01:52:40;5.30;78.60
15844;DHT22;50807;52.436;13.346;2023-04-03T01:53:12;5.30;78.60
15844;DHT22;50807;52.436;13.346;2023-04-03T01:53:43;5.30;78.60
15844;DHT22;50807;52.436;13.346;2023-04-03T01:54:14;5.30;78.60
15844;DHT22;50807;52.436;13.346;2023-04-03T01:54:46;5.30;78.60
15844;DHT22;50807;52.436;13.346;2023-04-03T01:55:16;5.30;78.70
15844;DHT22;50807;52.436;13.346;2023-04-03T01:55:48;5.30;78.70
15844;DHT22;50807;52.436;13.346;2023-04-03T01:56:19;5.30;78.70
15844;DHT22;50807;52.436;13.346;2023-04-03T01:56:51;5.30;78.70
15844;DHT22;50807;52.436;13.346;2023-04-03T01:57:22;5.30;78.70
15844;DHT22;50807;52.436;13.346;2023-04-03T01:57:53;5.30;78.70
15844;DHT22;50807;52.436;13.346;2023-04-03T01:58:24;5.30;78.80
15844;DHT22;50807;52.436;13.346;2023-04-03T01:58:55;5.30;78.80
15844;DHT22;50807;52.436;13.346;2023-04-03T01:59:26;5.30;78.80
15844;DHT22;50807;52.436;13.346;2023-04-03T01:59:57;5.30;78.80
15844;DHT22;50807;52.436;13.346;2023-04-03T02:00:29;5.30;78.80
15844;DHT22;50807;52.436;13.346;2023-04-03T02:01:00;5.30;78.90
15844;DHT22;50807;52.436;13.346;2023-04-03T02:01:31;5.30;78.90
15844;DHT22;50807;52.436;13.346;2023-04-03T02:02:04;5.30;78.90
15844;DHT22;50807;52.436;13.346;2023-04-03T02:02:35;5.30;78.90
15844;DHT22;50807;52.436;13.346;2023-04-03T02:03:06;5.30;78.90
15844;DHT22;50807;52.436;13.346;2023-04-03T02:03:38;5.30;79.00
15844;DHT22;50807;52.436;13.346;2023-04-03T02:04:09;5.30;79.00
15844;DHT22;50807;52.436;13.346;2023-04-03T02:04:40;5.30;79.00
15844;DHT22;50807;52.436;13.346;2023-04-03T02:05:11;5.30;79.00
15844;DHT22;50807;52.436;13.346;2023-04-03T02:05:42;5.30;79.00
15844;DHT22;50807;52.436;13.346;2023-04-03T02:06:13;5.30;79.10
15844;DHT22;50807;52.436;13.346;2023-04-03T02:06:45;5.30;79.10
15844;DHT22;50807;52.436;13.346;2023-04-03T02:07:16;5.30;79.10
15844;DHT22;50807;52.436;13.346;2023-04-03T02:07:47;5.30;79.10
15844;DHT22;50807;52.436;13.346;2023-04-03T02:08:18;5.30;79.10
15844;DHT22;50807;52.436;13.346;2023-04-03T02:08:49;5.30;79.20
15844;DHT22;50807;52.436;13.346;2023-04-03T02:09:20;5.30;79.20
15844;DHT22;50807;52.436;13.346;2023-04-03T02:09:52;5.30;79.20
15844;DHT22;50807;52.436;13.346;2023-04-03T02:10:23;5.30;79.20
15844;DHT22;50807;52.436;13.346;2023-04-03T02:10:53;5.30;79.20
15844;DHT22;50807;52.436;13.346;2023-04-03T02:11:25;5.30;79.20
15844;DHT22;50807;52.436;13.346;2023-04-03T02:11:56;5.30;79.30
15844;DHT22;50807;52.436;13.346;2023-04-03T02:12:27;5.30;79.20
15844;DHT22;50807;52.436;13.346;2023-04-03T02:12:58;5.30;79.30
15844;DHT22;50807;52.436;13.346;2023-04-03T02:13:29;5.30;79.30
15844;DHT22;50807;52.436;13.346;2023-04-03T02:14:00;5.30;79.40
15844;DHT22;50807;52.436;13.346;2023-04-03T02:14:32;5.30;79.40
15844;DHT22;50807;52.436;13.346;2023-04-03T02:15:03;5.30;79.40
15844;DHT22;50807;52.436;13.346;2023-04-03T02:15:37;5.30;79.50
15844;DHT22;50807;52.436;13.346;2023-04-03T02:16:10;5.30;79.50
15844;DHT22;50807;52.436;13.346;2023-04-03T02:16:41;5.30;79.50
15844;DHT22;50807;52.436;13.346;2023-04-03T02:17:13;5.30;79.50
15844;DHT22;50807;52.436;13.346;2023-04-03T02:17:45;5.30;79.60
15844;DHT22;50807;52.436;13.346;2023-04-03T02:18:16;5.30;79.50
15844;DHT22;50807;52.436;13.346;2023-04-03T02:18:47;5.30;79.60
15844;DHT22;50807;52.436;13.346;2023-04-03T02:19:19;5.30;79.60
15844;DHT22;50807;52.436;13.346;2023-04-03T02:19:50;5.30;79.60
15844;DHT22;50807;52.436;13.346;2023-04-03T02:20:21;5.20;80.30
15844;DHT22;50807;52.436;13.346;2023-04-03T02:20:53;5.30;79.70
15844;DHT22;50807;52.436;13.346;2023-04-03T02:21:23;5.20;79.60
15844;DHT22;50807;52.436;13.346;2023-04-03T02:21:55;5.30;79.70
15844;DHT22;50807;52.436;13.346;2023-04-03T02:22:26;5.20;79.60
15844;DHT22;50807;52.436;13.346;2023-04-03T02:22:57;5.20;79.70
15844;DHT22;50807;52.436;13.346;2023-04-03T02:23:28;5.20;79.80
15844;DHT22;50807;52.436;13.346;2023-04-03T02:24:00;5.20;79.70
15844;DHT22;50807;52.436;13.346;2023-04-03T02:24:32;5.20;79.70
15844;DHT22;50807;52.436;13.346;2023-04-03T02:25:03;5.20;79.80
15844;DHT22;50807;52.436;13.346;2023-04-03T02:25:35;5.20;79.80
15844;DHT22;50807;52.436;13.346;2023-04-03T02:26:08;5.20;79.80
15844;DHT22;50807;52.436;13.346;2023-04-03T02:26:42;5.20;79.90
15844;DHT22;50807;52.436;13.346;2023-04-03T02:27:13;5.20;79.80
15844;DHT22;50807;52.436;13.346;2023-04-03T02:27:43;5.20;79.80
15844;DHT22;50807;52.436;13.346;2023-04-03T02:28:15;5.20;80.60
15844;DHT22;50807;52.436;13.346;2023-04-03T02:28:46;5.20;79.80
15844;DHT22;50807;52.436;13.346;2023-04-03T02:29:17;5.20;79.90
15844;DHT22;50807;52.436;13.346;2023-04-03T02:29:48;5.20;79.90
15844;DHT22;50807;52.436;13.346;2023-04-03T02:30:19;5.20;79.90
15844;DHT22;50807;52.436;13.346;2023-04-03T02:30:50;5.20;80.00
15844;DHT22;50807;52.436;13.346;2023-04-03T02:31:22;5.20;80.00
15844;DHT22;50807;52.436;13.346;2023-04-03T02:31:54;5.20;80.10
15844;DHT22;50807;52.436;13.346;2023-04-03T02:32:27;5.20;80.10
15844;DHT22;50807;52.436;13.346;2023-04-03T02:32:58;5.20;80.10
15844;DHT22;50807;52.436;13.346;2023-04-03T02:33:29;5.20;80.10
15844;DHT22;50807;52.436;13.346;2023-04-03T02:34:01;5.20;80.20
15844;DHT22;50807;52.436;13.346;2023-04-03T02:34:32;5.20;80.20
15844;DHT22;50807;52.436;13.346;2023-04-03T02:35:03;5.20;80.20
15844;DHT22;50807;52.436;13.346;2023-04-03T02:35:35;5.20;80.20
15844;DHT22;50807;52.436;13.346;2023-04-03T02:36:08;5.20;80.30
15844;DHT22;50807;52.436;13.346;2023-04-03T02:36:39;5.20;80.40
15844;DHT22;50807;52.436;13.346;2023-04-03T02:37:10;5.20;80.30
15844;DHT22;50807;52.436;13.346;2023-04-03T02:37:41;5.20;80.30
15844;DHT22;50807;52.436;13.346;2023-04-03T02:38:12;5.20;80.40
15844;DHT22;50807;52.436;13.346;2023-04-03T02:38:43;5.20;80.40
15844;DHT22;50807;52.436;13.346;2023-04-03T02:39:15;5.20;80.40
15844;DHT22;50807;52.436;13.346;2023-04-03T02:39:47;5.20;80.50
15844;DHT22;50807;52.436;13.346;2023-04-03T02:40:19;5.20;80.50
15844;DHT22;50807;52.436;13.346;2023-04-03T02:40:50;5.10;80.50
15844;DHT22;50807;52.436;13.346;2023-04-03T02:41:21;5.10;80.50
15844;DHT22;50807;52.436;13.346;2023-04-03T02:41:53;5.10;80.50
15844;DHT22;50807;52.436;13.346;2023-04-03T02:42:23;5.10;80.50
15844;DHT22;50807;52.436;13.346;2023-04-03T02:42:54;5.10;80.50
15844;DHT22;50807;52.436;13.346;2023-04-03T02:43:26;5.10;80.60
15844;DHT22;50807;52.436;13.346;2023-04-03T02:43:57;5.10;80.60
15844;DHT22;50807;52.436;13.346;2023-04-03T02:44:27;5.10;80.60
15844;DHT22;50807;52.436;13.346;2023-04-03T02:44:58;5.10;80.60
15844;DHT22;50807;52.436;13.346;2023-04-03T02:45:30;5.10;80.70
15844;DHT22;50807;52.436;13.346;2023-04-03T02:46:01;5.10;80.70
15844;DHT22;50807;52.436;13.346;2023-04-03T02:46:32;5.10;80.80
15844;DHT22;50807;52.436;13.346;2023-04-03T02:47:04;5.10;80.80
15844;DHT22;50807;52.436;13.346;2023-04-03T02:47:37;5.10;80.80
15844;DHT22;50807;52.436;13.346;2023-04-03T02:48:07;5.10;80.90
15844;DHT22;50807;52.436;13.346;2023-04-03T02:48:39;5.10;80.90
15844;DHT22;50807;52.436;13.346;2023-04-03T02:49:10;5.10;80.90
15844;DHT22;50807;52.436;13.346;2023-04-03T02:49:41;5.10;80.90
15844;DHT22;50807;52.436;13.346;2023-04-03T02:50:14;5.10;81.00
15844;DHT22;50807;52.436;13.346;2023-04-03T02:50:44;5.10;81.00
15844;DHT22;50807;52.436;13.346;2023-04-03T02:51:15;5.10;81.00
15844;DHT22;50807;52.436;13.346;2023-04-03T02:51:46;5.10;81.00
15844;DHT22;50807;52.436;13.346;2023-04-03T02:52:18;5.10;81.10
15844;DHT22;50807;52.436;13.346;2023-04-03T02:52:49;5.10;81.10
15844;DHT22;50807;52.436;13.346;2023-04-03T02:53:20;5.10;81.10
15844;DHT22;50807;52.436;13.346;2023-04-03T02:53:52;5.10;81.10
15844;DHT22;50807;52.436;13.346;2023-04-03T02:54:23;5.10;81.20
15844;DHT22;50807;52.436;13.346;2023-04-03T02:54:58;5.10;81.20
15844;DHT22;50807;52.436;13.346;2023-04-03T02:55:29;5.10;81.20
15844;DHT22;50807;52.436;13.346;2023-04-03T02:56:00;5.10;81.20
15844;DHT22;50807;52.436;13.346;2023-04-03T02:56:31;5.10;81.20
15844;DHT22;50807;52.436;13.346;2023-04-03T02:57:03;5.10;81.20
15844;DHT22;50807;52.436;13.346;2023-04-03T02:57:33;5.10;81.30
15844;DHT22;50807;52.436;13.346;2023-04-03T02:58:04;5.10;81.30
15844;DHT22;50807;52.436;13.346;2023-04-03T02:58:35;5.10;81.30
15844;DHT22;50807;52.436;13.346;2023-04-03T02:59:07;5.10;81.30
15844;DHT22;50807;52.436;13.346;2023-04-03T02:59:38;5.10;81.40
15844;DHT22;50807;52.436;13.346;2023-04-03T03:00:11;5.10;81.40
15844;DHT22;50807;52.436;13.346;2023-04-03T03:00:43;5.10;81.50
15844;DHT22;50807;52.436;13.346;2023-04-03T03:01:14;5.10;81.50
15844;DHT22;50807;52.436;13.346;2023-04-03T03:01:45;5.10;81.40
15844;DHT22;50807;52.436;13.346;2023-04-03T03:02:17;5.10;81.50
15844;DHT22;50807;52.436;13.346;2023-04-03T03:02:50;5.10;81.50
15844;DHT22;50807;52.436;13.346;2023-04-03T03:03:20;5.10;81.60
15844;DHT22;50807;52.436;13.346;2023-04-03T03:03:52;5.10;81.60
15844;DHT22;50807;52.436;13.346;2023-04-03T03:04:23;5.10;81.60
15844;DHT22;50807;52.436;13.346;2023-04-03T03:04:54;5.10;81.60
15844;DHT22;50807;52.436;13.346;2023-04-03T03:05:25;5.10;81.70
15844;DHT22;50807;52.436;13.346;2023-04-03T03:06:03;5.10;81.70
15844;DHT22;50807;52.436;13.346;2023-04-03T03:06:35;5.00;81.70
15844;DHT22;50807;52.436;13.346;2023-04-03T03:07:07;5.10;81.80
15844;DHT22;50807;52.436;13.346;2023-04-03T03:07:38;5.00;81.70
15844;DHT22;50807;52.436;13.346;2023-04-03T03:08:08;5.00;81.70
15844;DHT22;50807;52.436;13.346;2023-04-03T03:08:40;5.00;81.80
15844;DHT22;50807;52.436;13.346;2023-04-03T03:09:12;5.00;81.80
15844;DHT22;50807;52.436;13.346;2023-04-03T03:09:43;5.00;81.80
15844;DHT22;50807;52.436;13.346;2023-04-03T03:10:15;5.00;81.90
15844;DHT22;50807;52.436;13.346;2023-04-03T03:10:46;5.00;81.90
15844;DHT22;50807;52.436;13.346;2023-04-03T03:11:17;5.00;81.90
15844;DHT22;50807;52.436;13.346;2023-04-03T03:11:48;5.00;81.90
15844;DHT22;50807;52.436;13.346;2023-04-03T03:12:20;5.00;81.90
15844;DHT22;50807;52.436;13.346;2023-04-03T03:12:52;5.00;82.00
15844;DHT22;50807;52.436;13.346;2023-04-03T03:13:23;5.00;82.00
15844;DHT22;50807;52.436;13.346;2023-04-03T03:13:55;5.00;82.00
15844;DHT22;50807;52.436;13.346;2023-04-03T03:14:26;5.00;82.10
15844;DHT22;50807;52.436;13.346;2023-04-03T03:14:57;5.00;82.10
15844;DHT22;50807;52.436;13.346;2023-04-03T03:15:29;5.00;82.10
15844;DHT22;50807;52.436;13.346;2023-04-03T03:16:00;5.00;82.10
15844;DHT22;50807;52.436;13.346;2023-04-03T03:16:31;5.00;82.20
15844;DHT22;50807;52.436;13.346;2023-04-03T03:17:02;5.00;82.20
15844;DHT22;50807;52.436;13.346;2023-04-03T03:17:33;5.00;82.20
15844;DHT22;50807;52.436;13.346;2023-04-03T03:18:06;5.00;82.20
15844;DHT22;50807;52.436;13.346;2023-04-03T03:18:37;5.00;82.30
15844;DHT22;50807;52.436;13.346;2023-04-03T03:19:09;5.00;82.30
15844;DHT22;50807;52.436;13.346;2023-04-03T03:19:40;5.00;82.30
15844;DHT22;50807;52.436;13.346;2023-04-03T03:20:12;5.00;82.30
15844;DHT22;50807;52.436;13.346;2023-04-03T03:20:45;5.00;82.30
15844;DHT22;50807;52.436;13.346;2023-04-03T03:21:16;5.00;82.40
15844;DHT22;50807;52.436;13.346;2023-04-03T03:21:48;5.00;82.50
15844;DHT22;50807;52.436;13.346;2023-04-03T03:22:19;5.00;82.50
15844;DHT22;50807;52.436;13.346;2023-04-03T03:22:49;5.00;82.50
15844;DHT22;50807;52.436;13.346;2023-04-03T03:23:21;5.00;82.50
15844;DHT22;50807;52.436;13.346;2023-04-03T03:23:54;5.00;82.60
15844;DHT22;50807;52.436;13.346;2023-04-03T03:24:25;5.00;82.50
15844;DHT22;50807;52.436;13.346;2023-04-03T03:24:55;5.00;82.60
15844;DHT22;50807;52.436;13.346;2023-04-03T03:25:27;5.00;82.60
15844;DHT22;50807;52.436;13.346;2023-04-03T03:25:59;5.00;82.70